createdAt,value
2022-09-28T00:01:17.180Z,2.50
2022-09-28T00:03:45.067Z,2.03
2022-09-28T00:06:12.638Z,2.00
2022-09-28T00:08:39.211Z,1.60
2022-09-28T00:11:08.362Z,2.20
2022-09-28T00:13:35.103Z,2.53
2022-09-28T00:16:14.747Z,1.55
2022-09-28T00:18:41.716Z,1.90
2022-09-28T00:21:09.977Z,1.30
2022-09-28T00:24:00.181Z,1.35
2022-09-28T00:26:28.510Z,1.30
2022-09-28T00:29:00.967Z,1.25
2022-09-28T00:31:30.488Z,1.70
2022-09-28T00:33:57.228Z,1.52
2022-09-28T00:36:24.415Z,1.05
2022-09-28T00:38:52.005Z,1.10
2022-09-28T00:41:18.352Z,1.40
2022-09-28T00:43:45.003Z,1.25
2022-09-28T00:46:19.781Z,1.73
2022-09-28T00:48:55.365Z,1.58
2022-09-28T00:51:23.124Z,1.70
2022-09-28T00:53:51.068Z,1.00
2022-09-28T00:56:20.220Z,1.00
2022-09-28T00:58:50.481Z,1.30
2022-09-28T01:01:17.501Z,1.58
2022-09-28T01:03:45.543Z,0.80
2022-09-28T01:06:31.348Z,0.65
2022-09-28T01:09:02.867Z,0.60
2022-09-28T01:11:32.692Z,0.68
2022-09-28T01:13:59.852Z,0.82
2022-09-28T01:17:00.611Z,0.77
2022-09-28T01:19:51.284Z,0.45
2022-09-28T01:22:55.128Z,0.70
2022-09-28T01:25:31.602Z,0.57
2022-09-28T01:28:04.629Z,0.70
2022-09-28T01:30:41.638Z,0.70
2022-09-28T01:33:17.455Z,0.45
2022-09-28T01:35:51.720Z,0.30
2022-09-28T01:38:23.186Z,0.55
2022-09-28T01:40:50.933Z,0.80
2022-09-28T01:43:23.663Z,0.80
2022-09-28T01:46:07.273Z,0.60
2022-09-28T01:48:43.478Z,0.90
2022-09-28T01:51:18.052Z,0.52
2022-09-28T01:53:53.171Z,0.52
2022-09-28T01:56:29.109Z,0.68
2022-09-28T01:59:03.140Z,1.00
2022-09-28T02:01:42.991Z,1.15
2022-09-28T02:04:18.236Z,1.52
2022-09-28T02:06:59.112Z,1.75
2022-09-28T02:09:36.164Z,2.65
2022-09-28T02:12:26.258Z,2.17
2022-09-28T02:14:58.475Z,2.67
2022-09-28T02:17:24.991Z,2.20
2022-09-28T02:19:51.593Z,2.13
2022-09-28T02:22:55.655Z,1.27
2022-09-28T02:25:41.023Z,0.77
2022-09-28T02:28:10.903Z,0.77
2022-09-28T02:30:39.370Z,1.30
2022-09-28T02:33:36.417Z,0.93
2022-09-28T02:36:06.168Z,1.10
2022-09-28T02:38:33.116Z,0.82
2022-09-28T02:41:26.607Z,0.65
2022-09-28T02:44:08.649Z,0.70
2022-09-28T02:46:49.010Z,0.75
2022-09-28T02:49:29.466Z,0.70
2022-09-28T02:52:21.496Z,0.55
2022-09-28T02:55:07.266Z,0.68
2022-09-28T02:58:01.392Z,0.52
2022-09-28T03:00:32.248Z,1.10
2022-09-28T03:03:01.407Z,0.70
2022-09-28T03:05:50.095Z,0.68
2022-09-28T03:08:30.077Z,0.80
2022-09-28T03:11:02.897Z,0.75
2022-09-28T03:13:31.319Z,0.90
2022-09-28T03:16:16.087Z,0.40
2022-09-28T03:18:43.399Z,0.75
2022-09-28T03:21:12.316Z,0.90
2022-09-28T03:23:39.458Z,0.95
2022-09-28T03:26:08.309Z,0.70
2022-09-28T03:28:36.494Z,0.75
2022-09-28T03:31:02.985Z,0.63
2022-09-28T03:33:29.773Z,0.98
2022-09-28T03:35:56.103Z,0.52
2022-09-28T03:38:22.498Z,0.90
2022-09-28T03:40:58.964Z,0.80
2022-09-28T03:43:26.558Z,0.85
2022-09-28T03:45:59.707Z,0.60
2022-09-28T03:48:32.946Z,0.85
2022-09-28T03:51:07.330Z,0.60
2022-09-28T03:53:33.912Z,0.50
2022-09-28T03:56:04.521Z,0.77
2022-09-28T03:58:31.256Z,0.60
2022-09-28T04:01:06.488Z,0.90
2022-09-28T04:03:33.419Z,0.65
2022-09-28T04:06:00.285Z,1.10
2022-09-28T04:08:27.535Z,0.68
2022-09-28T04:10:58.415Z,1.10
2022-09-28T04:13:25.991Z,0.68
2022-09-28T04:15:55.175Z,0.80
2022-09-28T04:18:22.420Z,0.70
2022-09-28T04:20:59.715Z,0.73
2022-09-28T04:23:28.060Z,0.57
2022-09-28T04:25:54.580Z,0.40
2022-09-28T04:28:40.444Z,0.80
2022-09-28T04:31:16.475Z,0.90
2022-09-28T04:33:43.308Z,0.32
2022-09-28T04:36:10.915Z,0.50
2022-09-28T04:38:52.426Z,0.70
2022-09-28T04:41:22.765Z,0.40
2022-09-28T04:43:49.814Z,0.80
2022-09-28T04:46:16.924Z,0.98
2022-09-28T04:48:43.755Z,0.70
2022-09-28T04:51:10.308Z,0.55
2022-09-28T04:53:36.716Z,0.45
2022-09-28T04:56:05.905Z,0.50
2022-09-28T04:58:34.622Z,0.95
2022-09-28T05:01:04.393Z,0.60
2022-09-28T05:03:30.923Z,1.02
2022-09-28T05:05:57.762Z,0.70
2022-09-28T05:08:24.432Z,0.52
2022-09-28T05:10:59.915Z,0.47
2022-09-28T05:13:27.702Z,0.40
2022-09-28T05:15:59.717Z,0.55
2022-09-28T05:18:28.628Z,0.40
2022-09-28T05:20:54.929Z,0.60
2022-09-28T05:23:21.684Z,0.80
2022-09-28T05:25:48.074Z,0.75
2022-09-28T05:28:14.496Z,0.73
2022-09-28T05:30:41.393Z,0.60
2022-09-28T05:33:08.878Z,0.80
2022-09-28T05:35:36.086Z,0.65
2022-09-28T05:38:04.989Z,0.70
2022-09-28T05:40:32.086Z,0.60
2022-09-28T05:43:00.332Z,0.50
2022-09-28T05:45:27.414Z,0.70
2022-09-28T05:47:54.591Z,0.70
2022-09-28T05:50:21.107Z,0.70
2022-09-28T05:52:48.228Z,0.63
2022-09-28T05:55:14.548Z,0.57
2022-09-28T05:57:40.842Z,0.60
2022-09-28T06:00:09.494Z,0.43
2022-09-28T06:02:35.862Z,0.50
2022-09-28T06:05:02.208Z,0.68
2022-09-28T06:07:28.958Z,0.40
2022-09-28T06:09:56.059Z,0.75
2022-09-28T06:12:22.411Z,0.30
2022-09-28T06:14:49.113Z,0.65
2022-09-28T06:17:15.888Z,0.20
2022-09-28T06:19:42.194Z,0.10
2022-09-28T06:22:08.905Z,0.35
2022-09-28T06:24:35.711Z,0.30
2022-09-28T06:27:02.042Z,0.20
2022-09-28T06:29:29.158Z,0.40
2022-09-28T06:31:56.475Z,0.30
2022-09-28T06:34:24.651Z,0.30
2022-09-28T06:36:51.268Z,0.20
2022-09-28T06:39:18.162Z,0.40
2022-09-28T06:41:44.475Z,0.30
2022-09-28T06:44:10.886Z,0.30
2022-09-28T06:46:39.334Z,0.30
2022-09-28T06:49:09.145Z,0.38
2022-09-28T06:51:36.603Z,0.22
2022-09-28T06:54:04.175Z,0.20
2022-09-28T06:56:32.941Z,0.15
2022-09-28T06:58:59.533Z,0.30
2022-09-28T07:01:26.294Z,0.30
2022-09-28T07:03:55.623Z,0.45
2022-09-28T07:06:24.069Z,0.32
2022-09-28T07:09:00.949Z,0.60
2022-09-28T07:11:39.545Z,0.40
2022-09-28T07:14:07.514Z,0.38
2022-09-28T07:16:56.542Z,0.60
2022-09-28T07:19:20.716Z,0.47
2022-09-28T07:21:53.777Z,0.32
2022-09-28T07:24:23.742Z,0.40
2022-09-28T07:26:50.932Z,0.55
2022-09-28T07:29:17.235Z,0.50
2022-09-28T07:31:43.943Z,0.30
2022-09-28T07:34:11.039Z,0.30
2022-09-28T07:36:38.981Z,0.45
2022-09-28T07:39:05.728Z,0.38
2022-09-28T07:41:32.475Z,0.20
2022-09-28T07:44:05.671Z,0.28
2022-09-28T07:46:33.832Z,0.20
2022-09-28T07:49:00.327Z,0.28
2022-09-28T07:51:27.292Z,0.30
2022-09-28T07:53:56.464Z,0.45
2022-09-28T07:56:23.319Z,0.38
2022-09-28T07:58:49.828Z,0.30
2022-09-28T08:01:16.618Z,0.40
2022-09-28T08:03:47.789Z,0.40
2022-09-28T08:06:17.523Z,0.40
2022-09-28T08:08:44.591Z,0.63
2022-09-28T08:11:13.441Z,0.60
2022-09-28T08:13:40.636Z,1.30
2022-09-28T08:16:08.332Z,1.10
2022-09-28T08:18:35.523Z,0.70
2022-09-28T08:21:22.932Z,0.30
2022-09-28T08:23:49.368Z,0.45
2022-09-28T08:26:16.709Z,0.68
2022-09-28T08:28:44.992Z,0.40
2022-09-28T08:31:11.462Z,0.70
2022-09-28T08:33:39.459Z,0.52
2022-09-28T08:36:06.076Z,0.50
2022-09-28T08:38:32.931Z,0.73
2022-09-28T08:41:21.645Z,0.60
2022-09-28T08:43:50.911Z,0.80
2022-09-28T08:46:23.898Z,0.70
2022-09-28T08:49:25.315Z,0.63
2022-09-28T08:52:14.678Z,0.70
2022-09-28T08:54:56.450Z,0.90
2022-09-28T08:57:41.839Z,1.10
2022-09-28T09:00:18.188Z,1.30
2022-09-28T09:02:46.787Z,0.60
2022-09-28T09:05:17.003Z,0.85
2022-09-28T09:07:58.770Z,0.80
2022-09-28T09:10:45.945Z,1.83
2022-09-28T09:13:34.199Z,0.90
2022-09-28T09:16:09.903Z,0.70
2022-09-28T09:18:42.607Z,0.82
2022-09-28T09:21:25.495Z,2.33
2022-09-28T09:23:58.859Z,0.63
2022-09-28T09:26:39.132Z,1.10
2022-09-28T09:29:44.302Z,0.80
2022-09-28T09:32:16.613Z,0.80
2022-09-28T09:35:01.516Z,0.70
2022-09-28T09:37:58.467Z,0.90
2022-09-28T09:40:58.943Z,1.23
2022-09-28T09:43:45.972Z,1.02
2022-09-28T09:46:20.319Z,0.90
2022-09-28T09:48:52.682Z,0.98
2022-09-28T09:51:29.061Z,0.90
2022-09-28T09:54:01.981Z,0.80
2022-09-28T09:56:38.451Z,0.80
2022-09-28T09:59:18.629Z,0.90
2022-09-28T10:01:46.338Z,1.42
2022-09-28T10:04:34.848Z,1.00
2022-09-28T10:07:06.913Z,0.90
2022-09-28T10:09:45.643Z,1.10
2022-09-28T10:12:19.260Z,1.20
2022-09-28T10:14:47.004Z,1.20
2022-09-28T10:17:19.681Z,1.00
2022-09-28T10:19:46.166Z,1.02
2022-09-28T10:22:19.203Z,1.88
2022-09-28T10:24:56.754Z,3.15
2022-09-28T10:27:34.096Z,1.30
2022-09-28T10:30:09.333Z,1.30
2022-09-28T10:32:45.195Z,1.38
2022-09-28T10:35:40.723Z,1.15
2022-09-28T10:38:15.776Z,1.15
2022-09-28T10:40:46.675Z,1.85
2022-09-28T10:43:29.126Z,1.27
2022-09-28T10:46:05.202Z,3.50
2022-09-28T10:48:48.271Z,1.20
2022-09-28T10:51:15.315Z,3.33
2022-09-28T10:53:41.857Z,1.55
2022-09-28T10:56:20.788Z,1.50
2022-09-28T10:58:47.183Z,1.40
2022-09-28T11:01:19.080Z,1.50
2022-09-28T11:03:54.872Z,1.48
2022-09-28T11:06:27.288Z,1.60
2022-09-28T11:08:57.349Z,1.80
2022-09-28T11:11:24.669Z,1.33
2022-09-28T11:13:54.006Z,1.48
2022-09-28T11:16:24.935Z,1.42
2022-09-28T11:18:51.630Z,1.58
2022-09-28T11:21:32.500Z,1.60
2022-09-28T11:24:06.393Z,1.60
2022-09-28T11:26:44.983Z,1.40
2022-09-28T11:29:24.432Z,1.70
2022-09-28T11:31:52.276Z,2.40
2022-09-28T11:34:36.449Z,2.17
2022-09-28T11:37:36.999Z,1.73
2022-09-28T11:40:24.835Z,1.60
2022-09-28T11:45:59.604Z,1.90
2022-09-28T11:48:33.860Z,1.70
2022-09-28T11:51:08.830Z,3.00
2022-09-28T11:53:41.611Z,2.17
2022-09-28T11:56:34.502Z,1.85
2022-09-28T11:59:10.994Z,3.92
2022-09-28T12:01:52.876Z,2.47
2022-09-28T12:04:37.403Z,1.50
2022-09-28T12:07:12.332Z,2.00
2022-09-28T12:09:50.431Z,1.88
2022-09-28T12:13:01.001Z,1.65
2022-09-28T12:16:10.344Z,2.22
2022-09-28T12:18:43.993Z,6.50
2022-09-28T12:21:25.955Z,2.90
2022-09-28T12:24:30.467Z,3.92
2022-09-28T12:27:05.057Z,2.80
2022-09-28T12:29:48.010Z,1.63
2022-09-28T12:32:37.559Z,8.82
2022-09-28T12:35:13.317Z,4.53
2022-09-28T12:38:15.003Z,2.08
2022-09-28T12:40:53.292Z,3.65
2022-09-28T12:43:28.888Z,17.55
2022-09-28T12:46:12.090Z,24.15
2022-09-28T12:49:47.265Z,2.30
2022-09-28T12:51:51.551Z,5.72
2022-09-28T12:54:35.404Z,8.30
2022-09-28T12:57:26.863Z,6.50
2022-09-28T13:00:22.797Z,1.48
2022-09-28T13:02:58.742Z,1.30
2022-09-28T13:05:37.292Z,1.77
2022-09-28T13:08:10.644Z,1.65
2022-09-28T13:11:09.027Z,1.67
2022-09-28T13:13:57.362Z,1.50
2022-09-28T13:16:40.216Z,1.42
2022-09-28T13:19:32.068Z,1.38
2022-09-28T13:22:38.180Z,1.50
2022-09-28T13:25:15.473Z,1.13
2022-09-28T13:27:48.449Z,1.30
2022-09-28T13:30:18.320Z,1.27
2022-09-28T13:32:47.284Z,1.85
2022-09-28T13:35:20.511Z,1.50
2022-09-28T13:37:49.085Z,1.33
2022-09-28T13:40:16.169Z,1.15
2022-09-28T13:42:52.147Z,1.50
2022-09-28T13:45:22.254Z,1.20
2022-09-28T13:47:53.301Z,1.60
2022-09-28T13:50:38.478Z,1.70
2022-09-28T13:53:23.932Z,1.88
2022-09-28T13:56:25.376Z,1.70
2022-09-28T13:59:10.405Z,4.93
2022-09-28T14:04:21.025Z,2.85
2022-09-28T14:06:57.400Z,2.92
2022-09-28T14:09:26.777Z,2.63
2022-09-28T14:12:01.946Z,7.40
2022-09-28T14:14:32.181Z,3.97
2022-09-28T14:17:23.442Z,2.90
2022-09-28T14:20:09.036Z,2.63
2022-09-28T14:22:55.080Z,2.20
2022-09-28T14:25:32.005Z,2.00
2022-09-28T14:28:27.361Z,2.53
2022-09-28T14:30:56.674Z,2.17
2022-09-28T14:33:32.838Z,1.58
2022-09-28T14:36:06.299Z,2.10
2022-09-28T14:38:56.367Z,3.17
2022-09-28T14:41:28.675Z,2.30
2022-09-28T14:44:08.419Z,1.98
2022-09-28T14:46:38.586Z,1.52
2022-09-28T14:49:17.606Z,2.58
2022-09-28T14:51:53.362Z,2.97
2022-09-28T14:54:22.002Z,2.13
2022-09-28T14:56:57.285Z,1.67
2022-09-28T14:59:38.183Z,2.67
2022-09-28T15:02:17.303Z,2.55
2022-09-28T15:04:54.279Z,4.80
2022-09-28T15:07:27.380Z,1.77
2022-09-28T15:09:56.435Z,2.42
2022-09-28T15:12:28.468Z,2.10
2022-09-28T15:15:02.546Z,1.80
2022-09-28T15:17:39.278Z,2.10
2022-09-28T15:20:20.905Z,2.38
2022-09-28T15:22:49.614Z,1.90
2022-09-28T15:25:19.869Z,1.48
2022-09-28T15:27:52.875Z,2.08
2022-09-28T15:30:31.708Z,2.55
2022-09-28T15:33:18.728Z,1.80
2022-09-28T15:36:02.055Z,2.40
2022-09-28T15:38:29.948Z,2.10
2022-09-28T15:40:57.343Z,1.83
2022-09-28T15:43:26.879Z,2.40
2022-09-28T15:46:07.335Z,1.92
2022-09-28T15:48:55.183Z,2.65
2022-09-28T15:51:24.526Z,2.17
2022-09-28T15:53:59.763Z,1.50
2022-09-28T15:56:27.503Z,1.70
2022-09-28T15:59:29.939Z,2.53
2022-09-28T16:02:15.530Z,2.80
2022-09-28T16:04:54.689Z,2.33
2022-09-28T16:07:25.496Z,2.55
2022-09-28T16:10:13.323Z,2.47
2022-09-28T16:12:40.092Z,3.75
2022-09-28T16:15:15.290Z,3.15
2022-09-28T16:17:41.953Z,3.72
2022-09-28T16:20:21.114Z,5.68
2022-09-28T16:22:47.795Z,4.30
2022-09-28T16:25:22.637Z,3.55
2022-09-28T16:30:25.411Z,4.30
2022-09-28T16:32:57.652Z,3.38
2022-09-28T16:35:32.468Z,2.40
2022-09-28T16:40:28.660Z,3.42
2022-09-28T16:43:00.067Z,4.00
2022-09-28T16:45:26.612Z,3.45
2022-09-28T16:47:55.971Z,3.22
2022-09-28T16:50:24.185Z,4.97
2022-09-28T16:53:32.151Z,4.47
2022-09-28T16:55:59.625Z,2.60
2022-09-28T16:58:26.684Z,2.28
2022-09-28T17:00:54.544Z,3.38
2022-09-28T17:03:23.292Z,4.60
2022-09-28T17:05:50.905Z,4.68
2022-09-28T17:08:20.662Z,3.60
2022-09-28T17:13:39.572Z,3.67
2022-09-28T17:16:12.177Z,3.67
2022-09-28T17:18:40.367Z,3.65
2022-09-28T17:21:12.095Z,2.95
2022-09-28T17:23:38.538Z,3.67
2022-09-28T17:26:06.208Z,2.60
2022-09-28T17:28:35.134Z,2.80
2022-09-28T17:31:02.900Z,2.47
2022-09-28T17:33:30.058Z,1.83
2022-09-28T17:36:02.189Z,1.30
2022-09-28T17:38:28.670Z,1.98
2022-09-28T17:40:55.780Z,1.63
2022-09-28T17:43:22.360Z,1.77
2022-09-28T17:45:50.580Z,2.45
2022-09-28T17:48:23.667Z,2.08
2022-09-28T17:50:50.612Z,2.03
2022-09-28T17:53:17.197Z,1.85
2022-09-28T17:55:44.044Z,1.65
2022-09-28T17:58:22.775Z,1.95
2022-09-28T18:00:51.353Z,1.92
2022-09-28T18:03:20.592Z,1.85
2022-09-28T18:05:49.689Z,1.73
2022-09-28T18:08:18.670Z,1.80
2022-09-28T18:10:46.732Z,2.05
2022-09-28T18:13:14.130Z,1.90
2022-09-28T18:15:40.751Z,2.28
2022-09-28T18:18:10.471Z,2.13
2022-09-28T18:20:39.329Z,2.10
2022-09-28T18:23:05.632Z,2.05
2022-09-28T18:25:31.971Z,1.90
2022-09-28T18:28:00.257Z,6.70
2022-09-28T18:30:27.990Z,2.90
2022-09-28T18:32:54.584Z,6.03
2022-09-28T18:35:23.145Z,3.03
2022-09-28T18:37:50.244Z,2.13
2022-09-28T18:40:17.041Z,1.98
2022-09-28T18:42:44.045Z,2.00
2022-09-28T18:45:11.168Z,1.88
2022-09-28T18:47:38.802Z,1.65
2022-09-28T18:50:06.271Z,2.03
2022-09-28T18:52:36.426Z,2.28
2022-09-28T18:55:03.003Z,1.95
2022-09-28T18:57:29.760Z,1.85
2022-09-28T18:59:56.062Z,1.55
2022-09-28T19:02:22.908Z,1.98
2022-09-28T19:04:49.388Z,1.90
2022-09-28T19:07:16.794Z,1.67
2022-09-28T19:09:44.527Z,1.90
2022-09-28T19:12:11.698Z,1.80
2022-09-28T19:14:38.119Z,1.98
2022-09-28T19:17:04.959Z,1.95
2022-09-28T19:19:31.875Z,1.52
2022-09-28T19:21:59.256Z,1.52
2022-09-28T19:24:25.643Z,1.88
2022-09-28T19:26:55.050Z,1.70
2022-09-28T19:29:22.007Z,1.50
2022-09-28T19:31:49.540Z,2.20
2022-09-28T19:34:16.045Z,1.73
2022-09-28T19:36:43.207Z,1.60
2022-09-28T19:39:13.830Z,1.90
2022-09-28T19:42:00.794Z,1.75
2022-09-28T19:44:28.626Z,2.20
2022-09-28T19:47:06.804Z,1.73
2022-09-28T19:49:37.351Z,1.73
2022-09-28T19:52:13.186Z,1.95
2022-09-28T19:54:44.960Z,1.63
2022-09-28T19:57:14.653Z,1.55
2022-09-28T19:59:41.511Z,2.25
2022-09-28T20:02:10.114Z,2.00
2022-09-28T20:04:36.527Z,2.10
2022-09-28T20:07:04.682Z,2.13
2022-09-28T20:09:31.903Z,2.40
2022-09-28T20:11:58.311Z,1.95
2022-09-28T20:14:26.411Z,2.03
2022-09-28T20:16:57.094Z,2.05
2022-09-28T20:19:23.506Z,2.08
2022-09-28T20:21:50.958Z,2.25
2022-09-28T20:24:17.346Z,1.92
2022-09-28T20:26:44.516Z,2.22
2022-09-28T20:29:11.583Z,2.40
2022-09-28T20:31:37.989Z,2.10
2022-09-28T20:34:05.772Z,2.13
2022-09-28T20:36:33.302Z,1.95
2022-09-28T20:39:04.010Z,2.25
2022-09-28T20:41:37.072Z,2.25
2022-09-28T20:44:06.119Z,3.78
2022-09-28T20:46:34.582Z,2.50
2022-09-28T20:49:01.758Z,2.90
2022-09-28T20:51:28.307Z,2.58
2022-09-28T20:53:56.288Z,3.15
2022-09-28T20:56:29.103Z,2.95
2022-09-28T20:58:55.672Z,3.80
2022-09-28T21:01:24.843Z,4.18
2022-09-28T21:03:56.804Z,4.32
2022-09-28T21:06:25.844Z,5.20
2022-09-28T21:08:52.592Z,3.78
2022-09-28T21:11:22.627Z,3.50
2022-09-28T21:13:52.681Z,3.55
2022-09-28T21:16:19.321Z,3.03
2022-09-28T21:18:45.678Z,3.08
2022-09-28T21:21:14.733Z,2.70
2022-09-28T21:23:42.991Z,2.40
2022-09-28T21:26:24.510Z,2.92
2022-09-28T21:29:04.727Z,2.38
2022-09-28T21:31:39.628Z,2.88
2022-09-28T21:36:43.236Z,2.42
2022-09-28T21:39:10.611Z,2.47
2022-09-28T21:41:37.413Z,3.03
2022-09-28T21:44:03.771Z,3.00
2022-09-28T21:46:34.281Z,3.00
2022-09-28T21:49:02.470Z,2.85
2022-09-28T21:51:30.035Z,2.80
2022-09-28T21:53:56.655Z,3.08
2022-09-28T21:56:23.065Z,2.70
2022-09-28T21:58:50.677Z,3.08
2022-09-28T22:01:19.682Z,2.47
2022-09-28T22:03:55.518Z,3.22
2022-09-28T22:06:24.342Z,3.13
2022-09-28T22:08:50.995Z,2.80
2022-09-28T22:11:20.421Z,2.88
2022-09-28T22:13:49.316Z,2.90
2022-09-28T22:16:18.081Z,3.20
2022-09-28T22:18:45.692Z,2.83
2022-09-28T22:21:16.379Z,2.85
2022-09-28T22:23:43.704Z,2.60
2022-09-28T22:26:11.617Z,3.20
2022-09-28T22:28:39.211Z,3.22
2022-09-28T22:31:06.146Z,3.55
2022-09-28T22:33:32.608Z,2.90
2022-09-28T22:35:59.453Z,3.38
2022-09-28T22:38:25.815Z,3.20
2022-09-28T22:40:54.897Z,2.75
2022-09-28T22:43:25.804Z,2.83
2022-09-28T22:46:12.950Z,2.63
2022-09-28T22:48:40.439Z,2.80
2022-09-28T22:51:07.754Z,2.80
2022-09-28T22:53:35.023Z,2.42
2022-09-28T22:56:05.487Z,2.80
2022-09-28T22:58:33.504Z,2.65
2022-09-28T23:01:15.167Z,3.35
2022-09-28T23:03:43.102Z,3.20
2022-09-28T23:06:10.787Z,3.03
2022-09-28T23:08:37.746Z,2.92
2022-09-28T23:11:05.560Z,3.40
2022-09-28T23:13:32.007Z,2.85
2022-09-28T23:16:03.467Z,3.55
2022-09-28T23:18:32.520Z,2.72
2022-09-28T23:21:01.592Z,2.55
2022-09-28T23:23:28.631Z,2.53
2022-09-28T23:25:56.235Z,2.58
2022-09-28T23:28:24.395Z,2.65
2022-09-28T23:30:51.540Z,2.53
2022-09-28T23:33:20.624Z,2.80
2022-09-28T23:35:47.153Z,3.28
2022-09-28T23:38:16.571Z,2.45
2022-09-28T23:40:43.616Z,3.22
2022-09-28T23:43:09.978Z,3.13
2022-09-28T23:45:36.324Z,3.40
2022-09-28T23:48:03.391Z,3.35
2022-09-28T23:50:29.710Z,2.78
2022-09-28T23:52:56.108Z,2.72
2022-09-28T23:55:23.037Z,3.20
2022-09-28T23:57:49.447Z,3.00
